createdAt,value
2018-10-19T14:26:28.520Z,45.87
2018-10-19T14:29:02.882Z,50.05
2018-10-19T14:31:37.202Z,55.30
2018-10-19T14:34:11.524Z,59.27
2018-10-19T14:36:45.847Z,59.30
2018-10-19T14:39:20.185Z,50.17
2018-10-19T14:41:54.485Z,46.45
2018-10-19T14:44:28.699Z,47.85
2018-10-19T14:47:03.019Z,52.90
2018-10-19T14:49:37.354Z,54.30
2018-10-19T14:52:12.261Z,55.05
2018-10-19T14:54:46.712Z,54.83
2018-10-19T14:57:21.036Z,53.45
2018-10-19T14:59:55.377Z,56.63
2018-10-19T15:02:29.739Z,54.67
2018-10-19T15:05:04.486Z,51.60
2018-10-19T15:07:39.218Z,52.85
2018-10-19T15:10:18.700Z,57.83
2018-10-19T15:12:52.942Z,59.25
2018-10-19T15:15:27.382Z,62.23
2018-10-19T15:18:01.785Z,58.95
2018-10-19T15:20:36.263Z,64.05
2018-10-19T15:23:10.627Z,58.95
2018-10-19T15:25:45.070Z,57.17
2018-10-19T15:28:19.404Z,63.80
2018-10-19T15:30:53.743Z,67.32
2018-10-19T15:33:28.105Z,73.45
2018-10-19T15:36:02.727Z,72.78
2018-10-19T15:38:37.330Z,68.95
2018-10-19T15:41:11.743Z,65.80
2018-10-19T15:43:46.403Z,68.30
2018-10-19T15:46:20.967Z,74.05
2018-10-19T15:48:55.212Z,72.20
2018-10-19T15:51:29.452Z,71.60
2018-10-19T15:54:03.803Z,76.97
2018-10-19T15:56:39.734Z,77.53
2018-10-19T15:59:14.144Z,84.92
2018-10-19T16:01:48.512Z,86.67
2018-10-19T16:04:22.930Z,83.90
2018-10-19T16:06:57.439Z,87.22
2018-10-19T16:09:31.737Z,95.03
2018-10-19T16:12:06.201Z,94.80
2018-10-19T16:14:40.650Z,93.03
2018-10-19T16:17:15.022Z,92.80
2018-10-19T16:19:49.311Z,100.55
2018-10-19T16:22:23.647Z,106.50
2018-10-19T16:24:57.946Z,109.78
2018-10-19T16:27:32.317Z,110.85
2018-10-19T16:30:07.770Z,110.80
2018-10-19T16:32:42.034Z,122.22
2018-10-19T16:35:16.345Z,115.35
2018-10-19T16:37:50.668Z,122.02
2018-10-19T16:40:24.939Z,108.57
2018-10-19T16:42:59.219Z,106.95
2018-10-19T16:45:33.558Z,112.92
2018-10-19T16:48:08.094Z,113.90
2018-10-19T16:50:42.386Z,110.15
2018-10-19T16:53:16.687Z,119.65
2018-10-19T16:55:51.112Z,122.15
2018-10-19T16:58:25.894Z,107.20
2018-10-19T17:01:00.128Z,111.30
2018-10-19T17:03:34.428Z,117.67
2018-10-19T17:06:08.846Z,111.30
2018-10-19T17:08:43.273Z,110.57
2018-10-19T17:11:17.496Z,114.03
2018-10-19T17:13:51.747Z,115.62
2018-10-19T17:16:25.971Z,108.22
2018-10-19T17:19:00.335Z,108.65
2018-10-19T17:21:34.670Z,105.75
2018-10-19T17:24:08.931Z,104.38
2018-10-19T17:26:43.194Z,104.75
2018-10-19T17:29:17.665Z,113.90
2018-10-19T17:31:51.967Z,121.45
2018-10-19T17:34:26.341Z,109.90
2018-10-19T17:37:00.602Z,105.72
2018-10-19T17:39:34.877Z,102.27
2018-10-19T17:42:09.280Z,102.25
2018-10-19T17:44:43.436Z,102.67
2018-10-19T17:47:17.850Z,99.22
2018-10-19T17:49:52.148Z,112.12
2018-10-19T17:52:26.452Z,91.10
2018-10-19T17:55:00.885Z,103.17
2018-10-19T17:57:35.286Z,116.40
2018-10-19T18:00:11.073Z,109.22
2018-10-19T18:02:45.511Z,108.80
2018-10-19T18:05:19.794Z,119.35
2018-10-19T18:07:54.150Z,110.52
2018-10-19T18:10:28.734Z,112.03
2018-10-19T18:13:03.081Z,112.65
2018-10-19T18:15:37.416Z,129.20
2018-10-19T18:18:11.686Z,221.93
2018-10-19T18:20:45.946Z,199.02
2018-10-19T18:23:20.676Z,195.28
2018-10-19T18:25:54.789Z,166.68
2018-10-19T18:28:29.183Z,129.87
2018-10-19T18:31:03.595Z,129.10
2018-10-19T18:33:37.928Z,139.22
2018-10-19T18:36:12.390Z,122.72
2018-10-19T18:38:46.759Z,103.20
2018-10-19T18:41:21.274Z,100.65
2018-10-19T18:43:55.695Z,106.35
2018-10-19T18:46:30.075Z,96.40
2018-10-19T18:49:04.586Z,96.20
2018-10-19T18:51:38.947Z,95.38
2018-10-19T18:54:13.386Z,102.15
2018-10-19T18:56:47.858Z,104.07
2018-10-19T18:59:22.224Z,96.12
2018-10-19T19:01:56.610Z,96.02
2018-10-19T19:04:30.966Z,98.37
2018-10-19T19:07:06.039Z,98.03
2018-10-19T19:09:40.335Z,92.62
2018-10-19T19:12:14.693Z,110.90
2018-10-19T19:14:49.063Z,104.65
2018-10-19T19:17:23.393Z,108.85
2018-10-19T19:20:03.386Z,113.60
2018-10-19T19:22:37.683Z,107.03
2018-10-19T19:25:17.491Z,95.20
2018-10-19T19:27:51.979Z,101.33
2018-10-19T19:30:26.384Z,103.42
2018-10-19T19:33:06.006Z,97.35
2018-10-19T19:35:40.303Z,94.45
2018-10-19T19:38:14.862Z,110.97
2018-10-19T19:40:54.696Z,94.83
2018-10-19T19:43:29.019Z,95.65
2018-10-19T19:46:03.339Z,88.67
2018-10-19T19:48:42.976Z,89.10
2018-10-19T19:51:17.406Z,89.35
2018-10-19T19:53:51.792Z,73.55
2018-10-19T19:56:26.093Z,79.45
2018-10-19T19:59:00.601Z,93.47
2018-10-19T20:01:34.788Z,98.45
2018-10-19T20:04:09.204Z,106.52
2018-10-19T20:06:43.550Z,102.78
2018-10-19T20:09:17.814Z,102.80
2018-10-19T20:11:52.142Z,105.85
2018-10-19T20:14:26.507Z,103.85
2018-10-19T20:17:00.827Z,101.80
2018-10-19T20:19:35.168Z,94.60
2018-10-19T20:22:09.449Z,97.88
2018-10-19T20:24:43.715Z,97.65
2018-10-19T20:27:18.076Z,100.65
2018-10-19T20:29:52.272Z,109.90
2018-10-19T20:32:26.693Z,105.15
2018-10-19T20:35:01.075Z,117.60
2018-10-19T20:37:35.350Z,437.68
2018-10-19T20:40:09.749Z,389.00
2018-10-19T20:42:44.185Z,350.45
2018-10-19T20:45:18.620Z,308.87
2018-10-19T20:47:53.041Z,243.17
2018-10-19T20:50:27.459Z,296.75
2018-10-19T20:53:01.963Z,367.55
2018-10-19T20:55:36.268Z,341.40
2018-10-19T20:58:10.728Z,271.55
2018-10-19T21:00:45.110Z,239.30
2018-10-19T21:03:19.485Z,220.90
2018-10-19T21:05:53.769Z,288.23
2018-10-19T21:08:29.229Z,219.03
2018-10-19T21:11:03.601Z,103.72
2018-10-19T21:13:37.960Z,139.20
2018-10-19T21:16:12.337Z,100.53
2018-10-19T21:18:46.760Z,107.00
2018-10-19T21:21:21.115Z,88.40
2018-10-19T21:23:55.454Z,95.03
2018-10-19T21:26:29.883Z,103.58
2018-10-19T21:29:04.266Z,86.75
2018-10-19T21:31:38.600Z,93.37
2018-10-19T21:34:12.972Z,103.50
2018-10-19T21:36:47.373Z,87.85
2018-10-19T21:39:21.754Z,80.80
2018-10-19T21:41:56.179Z,67.08
2018-10-19T21:44:30.512Z,68.45
2018-10-19T21:47:04.900Z,66.70
2018-10-19T21:49:39.465Z,101.45
2018-10-19T21:52:13.852Z,123.87
2018-10-19T21:54:48.397Z,78.33
2018-10-19T21:57:22.786Z,76.17
2018-10-19T21:59:57.160Z,75.32
2018-10-19T22:02:31.572Z,76.50
2018-10-19T22:05:06.218Z,68.22
2018-10-19T22:07:40.682Z,70.08
2018-10-19T22:10:14.923Z,69.05
2018-10-19T22:12:49.359Z,63.68
2018-10-19T22:15:23.841Z,63.30
2018-10-19T22:17:58.465Z,58.73
2018-10-19T22:20:32.832Z,66.05
2018-10-19T22:23:07.183Z,60.03
2018-10-19T22:25:41.639Z,53.02
2018-10-19T22:28:16.161Z,54.80
2018-10-19T22:30:50.703Z,54.88
2018-10-19T22:33:24.992Z,52.95
2018-10-19T22:35:59.648Z,58.65
2018-10-19T22:38:33.924Z,56.40
2018-10-19T22:41:08.420Z,53.78
2018-10-19T22:43:42.783Z,52.40
2018-10-19T22:46:17.110Z,58.38
2018-10-19T22:48:51.409Z,60.70
2018-10-19T22:51:25.669Z,64.75
2018-10-19T22:54:00.002Z,58.13
2018-10-19T22:56:34.361Z,56.65
2018-10-19T22:59:08.912Z,62.60
2018-10-19T23:01:43.295Z,56.55
2018-10-19T23:04:17.784Z,52.65
2018-10-19T23:06:52.103Z,65.97
2018-10-19T23:09:26.527Z,56.40
2018-10-19T23:12:00.835Z,55.70
2018-10-19T23:14:35.090Z,60.30
2018-10-19T23:17:09.432Z,51.58
2018-10-19T23:19:43.696Z,61.85
2018-10-19T23:22:17.938Z,65.95
2018-10-19T23:24:52.682Z,60.45
2018-10-19T23:27:26.998Z,65.40
2018-10-19T23:30:01.286Z,58.00
2018-10-19T23:32:35.723Z,69.00
2018-10-19T23:35:10.202Z,67.58
2018-10-19T23:37:44.636Z,64.87
2018-10-19T23:40:18.887Z,60.45
2018-10-19T23:42:53.156Z,61.33
2018-10-19T23:45:27.450Z,57.88
2018-10-19T23:48:01.853Z,123.65
2018-10-19T23:50:36.347Z,59.48
2018-10-19T23:53:10.803Z,54.73
2018-10-19T23:55:45.122Z,63.17
2018-10-19T23:58:19.535Z,65.55
